Time,TemperatureF,DewpointF,PressureIn,WindDirection,WindDirectionDegrees,WindSpeedMPH,WindSpeedGustMPH,Humidity,HourlyPrecipIn,Conditions,Clouds,dailyrainin,SoftwareType,DateUTC
2013-02-20 00:09:00,37.6,34.9,29.54,North,5,9.0,9.0,90,0.00,,,0.00,Wunderground v.1.15,2013-02-20 05:09:00,
2013-02-20 00:19:00,37.2,34.0,29.55,North,5,8.0,16.0,88,0.00,,,0.00,Wunderground v.1.15,2013-02-20 05:19:00,
2013-02-20 00:29:00,37.1,33.0,29.55,North,5,10.0,13.0,85,0.00,,,0.00,Wunderground v.1.15,2013-02-20 05:29:00,
2013-02-20 00:39:00,36.9,31.6,29.55,North,5,10.0,11.0,81,0.00,,,0.00,Wunderground v.1.15,2013-02-20 05:39:00,
2013-02-20 00:49:00,36.7,32.0,29.55,North,5,9.0,9.0,83,0.00,,,0.00,Wunderground v.1.15,2013-02-20 05:49:00,
2013-02-20 00:59:00,36.3,31.3,29.55,North,5,10.0,10.0,82,0.00,,,0.00,Wunderground v.1.15,2013-02-20 05:59:00,
2013-02-20 01:09:00,36.1,31.1,29.56,North,5,10.0,10.0,82,0.00,,,0.00,Wunderground v.1.15,2013-02-20 06:09:00,
2013-02-20 01:19:00,35.7,30.4,29.56,North,5,8.0,9.0,81,0.00,,,0.00,Wunderground v.1.15,2013-02-20 06:19:00,
2013-02-20 01:29:00,35.5,29.0,29.56,North,5,9.0,9.0,77,0.00,,,0.00,Wunderground v.1.15,2013-02-20 06:29:00,
2013-02-20 01:39:00,35.5,28.7,29.56,North,5,9.0,11.0,76,0.00,,,0.00,Wunderground v.1.15,2013-02-20 06:39:00,
2013-02-20 01:49:00,35.4,27.3,29.56,North,5,11.0,13.0,72,0.00,,,0.00,Wunderground v.1.15,2013-02-20 06:49:00,
2013-02-20 01:59:00,35.3,26.5,29.56,North,5,9.0,12.0,70,0.00,,,0.00,Wunderground v.1.15,2013-02-20 06:59:00,
2013-02-20 02:09:00,35.1,26.6,29.56,North,5,8.0,10.0,71,0.00,,,0.00,Wunderground v.1.15,2013-02-20 07:09:00,
2013-02-20 02:18:00,35.1,26.6,29.56,North,5,9.0,9.0,71,0.00,,,0.00,Wunderground v.1.15,2013-02-20 07:18:00,
2013-02-20 02:28:00,35.1,27.0,29.56,North,5,10.0,10.0,72,0.00,,,0.00,Wunderground v.1.15,2013-02-20 07:28:00,
2013-02-20 02:38:00,34.8,26.7,29.56,North,5,8.0,8.0,72,0.00,,,0.00,Wunderground v.1.15,2013-02-20 07:38:00,
2013-02-20 02:48:00,34.8,26.4,29.56,North,5,9.0,11.0,71,0.00,,,0.00,Wunderground v.1.15,2013-02-20 07:48:00,
2013-02-20 02:58:00,34.6,26.2,29.56,North,5,8.0,10.0,71,0.00,,,0.00,Wunderground v.1.15,2013-02-20 07:58:00,
2013-02-20 03:09:00,34.5,26.7,29.56,North,5,9.0,9.0,73,0.00,,,0.00,Wunderground v.1.15,2013-02-20 08:09:00,
2013-02-20 03:19:00,34.4,27.0,29.56,North,5,8.0,9.0,74,0.00,,,0.00,Wunderground v.1.15,2013-02-20 08:19:00,
2013-02-20 03:29:00,34.3,26.9,29.56,North,5,8.0,9.0,74,0.00,,,0.00,Wunderground v.1.15,2013-02-20 08:29:00,
2013-02-20 03:38:00,34.3,27.5,29.57,North,5,10.0,10.0,76,0.00,,,0.00,Wunderground v.1.15,2013-02-20 08:38:00,
2013-02-20 03:48:00,34.2,27.4,29.57,North,5,9.0,9.0,76,0.00,,,0.00,Wunderground v.1.15,2013-02-20 08:48:00,
2013-02-20 03:58:00,34.2,27.1,29.57,North,5,10.0,10.0,75,0.00,,,0.00,Wunderground v.1.15,2013-02-20 08:58:00,
2013-02-20 04:09:00,34.1,26.7,29.58,North,5,10.0,14.0,74,0.00,,,0.00,Wunderground v.1.15,2013-02-20 09:09:00,
2013-02-20 04:19:00,34.1,27.3,29.58,North,5,10.0,10.0,76,0.00,,,0.00,Wunderground v.1.15,2013-02-20 09:19:00,
2013-02-20 04:29:00,33.9,26.8,29.58,North,5,9.0,9.0,75,0.00,,,0.00,Wunderground v.1.15,2013-02-20 09:29:00,
2013-02-20 04:39:00,33.8,26.7,29.58,North,5,9.0,11.0,75,0.00,,,0.00,Wunderground v.1.15,2013-02-20 09:39:00,
2013-02-20 04:49:00,33.6,26.5,29.58,North,5,9.0,16.0,75,0.00,,,0.00,Wunderground v.1.15,2013-02-20 09:49:00,
2013-02-20 04:59:00,33.4,26.3,29.58,North,5,10.0,10.0,75,0.00,,,0.00,Wunderground v.1.15,2013-02-20 09:59:00,
2013-02-20 05:09:00,33.3,25.9,29.59,North,5,10.0,10.0,74,0.00,,,0.00,Wunderground v.1.15,2013-02-20 10:09:00,
2013-02-20 05:19:00,33.1,25.4,29.59,North,5,11.0,11.0,73,0.00,,,0.00,Wunderground v.1.15,2013-02-20 10:19:00,
2013-02-20 05:29:00,33.0,25.3,29.59,North,5,10.0,12.0,73,0.00,,,0.00,Wunderground v.1.15,2013-02-20 10:29:00,
2013-02-20 05:39:00,33.0,25.6,29.60,North,5,10.0,10.0,74,0.00,,,0.00,Wunderground v.1.15,2013-02-20 10:39:00,
2013-02-20 05:49:00,32.8,25.4,29.61,North,5,10.0,10.0,74,0.00,,,0.00,Wunderground v.1.15,2013-02-20 10:49:00,
2013-02-20 05:59:00,32.7,25.0,29.61,North,5,11.0,11.0,73,0.00,,,0.00,Wunderground v.1.15,2013-02-20 10:59:00,
2013-02-20 06:09:00,32.6,24.9,29.61,North,5,10.0,20.0,73,0.00,,,0.00,Wunderground v.1.15,2013-02-20 11:09:00,
2013-02-20 06:19:00,32.4,25.0,29.61,North,5,12.0,12.0,74,0.00,,,0.00,Wunderground v.1.15,2013-02-20 11:19:00,
2013-02-20 06:29:00,32.1,25.1,29.61,North,5,11.0,11.0,75,0.00,,,0.00,Wunderground v.1.15,2013-02-20 11:29:00,
2013-02-20 06:39:00,32.0,24.6,29.63,North,5,11.0,11.0,74,0.00,,,0.00,Wunderground v.1.15,2013-02-20 11:39:00,
2013-02-20 06:49:00,32.0,25.0,29.64,North,5,10.0,10.0,75,0.00,,,0.00,Wunderground v.1.15,2013-02-20 11:49:00,
2013-02-20 06:59:00,31.9,25.2,29.64,North,5,9.0,9.0,76,0.00,,,0.00,Wunderground v.1.15,2013-02-20 11:59:00,
2013-02-20 07:09:00,31.9,24.9,29.64,North,5,9.0,9.0,75,0.00,,,0.00,Wunderground v.1.15,2013-02-20 12:09:00,
2013-02-20 07:18:00,32.0,24.6,29.65,North,5,9.0,17.0,74,0.00,,,0.00,Wunderground v.1.15,2013-02-20 12:18:00,
2013-02-20 07:28:00,32.2,25.2,29.65,North,5,9.0,12.0,75,0.00,,,0.00,Wunderground v.1.15,2013-02-20 12:28:00,
2013-02-20 07:38:00,32.4,25.4,29.66,North,5,7.0,7.0,75,0.00,,,0.00,Wunderground v.1.15,2013-02-20 12:38:00,
2013-02-20 07:49:00,32.4,25.4,29.66,North,5,8.0,8.0,75,0.00,,,0.00,Wunderground v.1.15,2013-02-20 12:49:00,
2013-02-20 07:58:00,32.2,23.5,29.66,North,5,9.0,15.0,70,0.00,,,0.00,Wunderground v.1.15,2013-02-20 12:58:00,
2013-02-20 08:08:00,32.1,23.4,29.66,North,5,15.0,16.0,70,0.00,,,0.00,Wunderground v.1.15,2013-02-20 13:08:00,
2013-02-20 08:18:00,31.9,22.9,29.66,North,5,16.0,16.0,69,0.00,,,0.00,Wunderground v.1.15,2013-02-20 13:18:00,
2013-02-20 08:28:00,31.9,23.2,29.66,North,5,13.0,13.0,70,0.00,,,0.00,Wunderground v.1.15,2013-02-20 13:28:00,
2013-02-20 08:38:00,31.7,21.6,29.67,North,5,13.0,13.0,66,0.00,,,0.00,Wunderground v.1.15,2013-02-20 13:38:00,
2013-02-20 08:48:00,31.5,21.1,29.67,North,5,10.0,10.0,65,0.00,,,0.00,Wunderground v.1.15,2013-02-20 13:48:00,
2013-02-20 08:58:00,31.4,21.0,29.67,North,5,11.0,11.0,65,0.00,,,0.00,Wunderground v.1.15,2013-02-20 13:58:00,
2013-02-20 09:09:00,31.2,21.9,29.67,North,5,8.0,8.0,68,0.00,,,0.00,Wunderground v.1.15,2013-02-20 14:09:00,
2013-02-20 09:19:00,31.1,22.1,29.67,North,5,7.0,11.0,69,0.00,,,0.00,Wunderground v.1.15,2013-02-20 14:19:00,
2013-02-20 09:29:00,30.8,22.5,29.67,North,5,8.0,8.0,71,0.00,,,0.00,Wunderground v.1.15,2013-02-20 14:29:00,
2013-02-20 09:39:00,30.6,23.0,29.68,North,5,7.0,7.0,73,0.00,,,0.00,Wunderground v.1.15,2013-02-20 14:39:00,
2013-02-20 09:49:00,30.4,23.4,29.68,North,5,7.0,10.0,75,0.00,,,0.00,Wunderground v.1.15,2013-02-20 14:49:00,
2013-02-20 09:59:00,30.3,22.7,29.68,North,5,8.0,8.0,73,0.00,,,0.00,Wunderground v.1.15,2013-02-20 14:59:00,
2013-02-20 10:09:00,30.0,23.0,29.68,North,5,8.0,13.0,75,0.00,,,0.00,Wunderground v.1.15,2013-02-20 15:09:00,
2013-02-20 10:19:00,30.0,23.0,29.69,North,5,8.0,12.0,75,0.00,,,0.00,Wunderground v.1.15,2013-02-20 15:19:00,
2013-02-20 10:29:00,30.2,23.5,29.69,North,5,7.0,7.0,76,0.00,,,0.00,Wunderground v.1.15,2013-02-20 15:29:00,
2013-02-20 10:39:00,30.2,22.9,29.69,North,5,5.0,5.0,74,0.00,,,0.00,Wunderground v.1.15,2013-02-20 15:39:00,
2013-02-20 10:49:00,30.2,22.3,29.69,North,5,8.0,8.0,72,0.00,,,0.00,Wunderground v.1.15,2013-02-20 15:49:00,
2013-02-20 10:59:00,29.9,20.6,29.69,North,5,8.0,12.0,68,0.00,,,0.00,Wunderground v.1.15,2013-02-20 15:59:00,
2013-02-20 11:09:00,30.1,21.5,29.69,North,5,8.0,8.0,70,0.00,,,0.00,Wunderground v.1.15,2013-02-20 16:09:00,
2013-02-20 11:19:00,30.8,21.1,29.69,North,5,7.0,10.0,67,0.00,,,0.00,Wunderground v.1.15,2013-02-20 16:19:00,
2013-02-20 11:29:00,31.0,19.5,29.69,North,5,9.0,9.0,62,0.00,,,0.00,Wunderground v.1.15,2013-02-20 16:29:00,
2013-02-20 11:39:00,31.1,20.0,29.68,North,5,9.0,11.0,63,0.00,,,0.00,Wunderground v.1.15,2013-02-20 16:39:00,
2013-02-20 11:49:00,31.2,19.7,29.68,North,5,9.0,9.0,62,0.00,,,0.00,Wunderground v.1.15,2013-02-20 16:49:00,
2013-02-20 11:59:00,30.9,17.8,29.68,North,5,9.0,9.0,58,0.00,,,0.00,Wunderground v.1.15,2013-02-20 16:59:00,
2013-02-20 12:09:00,30.8,17.7,29.67,North,5,9.0,15.0,58,0.00,,,0.00,Wunderground v.1.15,2013-02-20 17:09:00,
2013-02-20 12:19:00,30.6,18.0,29.67,North,5,8.0,9.0,59,0.00,,,0.00,Wunderground v.1.15,2013-02-20 17:19:00,
2013-02-20 12:28:00,30.5,16.2,29.67,North,5,10.0,10.0,55,0.00,,,0.00,Wunderground v.1.15,2013-02-20 17:28:00,
2013-02-20 12:39:00,31.3,17.8,29.67,North,5,8.0,8.0,57,0.00,,,0.00,Wunderground v.1.15,2013-02-20 17:39:00,
2013-02-20 12:49:00,31.9,17.5,29.67,North,5,10.0,15.0,55,0.00,,,0.00,Wunderground v.1.15,2013-02-20 17:49:00,
2013-02-20 12:58:00,31.8,17.9,29.67,North,5,9.0,9.0,56,0.00,,,0.00,Wunderground v.1.15,2013-02-20 17:58:00,
2013-02-20 13:08:00,31.9,17.5,29.67,North,5,7.0,7.0,55,0.00,,,0.00,Wunderground v.1.15,2013-02-20 18:08:00,
2013-02-20 13:18:00,31.6,16.8,29.67,North,5,8.0,9.0,54,0.00,,,0.00,Wunderground v.1.15,2013-02-20 18:18:00,
2013-02-20 13:28:00,31.2,17.3,29.67,North,5,8.0,8.0,56,0.00,,,0.00,Wunderground v.1.15,2013-02-20 18:28:00,
2013-02-20 13:38:00,30.9,17.4,29.67,North,5,7.0,7.0,57,0.00,,,0.00,Wunderground v.1.15,2013-02-20 18:38:00,
2013-02-20 13:48:00,31.0,17.1,29.67,North,5,9.0,9.0,56,0.00,,,0.00,Wunderground v.1.15,2013-02-20 18:48:00,
2013-02-20 13:58:00,31.3,17.0,29.67,North,5,9.0,13.0,55,0.00,,,0.00,Wunderground v.1.15,2013-02-20 18:58:00,
2013-02-20 14:09:00,31.2,16.5,29.67,North,5,9.0,9.0,54,0.00,,,0.00,Wunderground v.1.15,2013-02-20 19:09:00,
2013-02-20 14:19:00,31.0,17.5,29.67,North,5,9.0,9.0,57,0.00,,,0.00,Wunderground v.1.15,2013-02-20 19:19:00,
2013-02-20 14:29:00,30.9,16.2,29.67,North,5,10.0,12.0,54,0.00,,,0.00,Wunderground v.1.15,2013-02-20 19:29:00,
2013-02-20 14:39:00,30.9,16.2,29.67,North,5,9.0,9.0,54,0.00,,,0.00,Wunderground v.1.15,2013-02-20 19:39:00,
2013-02-20 14:49:00,30.7,15.1,29.68,North,5,11.0,11.0,52,0.00,,,0.00,Wunderground v.1.15,2013-02-20 19:49:00,
2013-02-20 14:59:00,30.6,15.5,29.68,North,5,11.0,11.0,53,0.00,,,0.00,Wunderground v.1.15,2013-02-20 19:59:00,
2013-02-20 15:09:00,30.5,16.2,29.68,North,5,11.0,11.0,55,0.00,,,0.00,Wunderground v.1.15,2013-02-20 20:09:00,
2013-02-20 15:19:00,30.5,14.9,29.69,North,5,10.0,10.0,52,0.00,,,0.00,Wunderground v.1.15,2013-02-20 20:19:00,
2013-02-20 15:29:00,30.2,15.1,29.69,North,5,10.0,10.0,53,0.00,,,0.00,Wunderground v.1.15,2013-02-20 20:29:00,
2013-02-20 15:39:00,30.5,16.2,29.68,North,5,8.0,8.0,55,0.00,,,0.00,Wunderground v.1.15,2013-02-20 20:39:00,
2013-02-20 15:49:00,30.9,14.9,29.69,North,5,9.0,12.0,51,0.00,,,0.00,Wunderground v.1.15,2013-02-20 20:49:00,
2013-02-20 15:59:00,30.6,15.0,29.69,North,5,10.0,11.0,52,0.00,,,0.00,Wunderground v.1.15,2013-02-20 20:59:00,
2013-02-20 16:09:00,30.9,16.2,29.69,North,5,9.0,9.0,54,0.00,,,0.00,Wunderground v.1.15,2013-02-20 21:09:00,
2013-02-20 16:19:00,30.4,15.3,29.69,North,5,10.0,11.0,53,0.00,,,0.00,Wunderground v.1.15,2013-02-20 21:19:00,
2013-02-20 16:29:00,30.3,15.6,29.69,North,5,10.0,10.0,54,0.00,,,0.00,Wunderground v.1.15,2013-02-20 21:29:00,
2013-02-20 16:39:00,30.1,15.9,29.70,North,5,10.0,10.0,55,0.00,,,0.00,Wunderground v.1.15,2013-02-20 21:39:00,
2013-02-20 16:49:00,29.9,15.3,29.70,North,5,11.0,11.0,54,0.00,,,0.00,Wunderground v.1.15,2013-02-20 21:49:00,
2013-02-20 16:59:00,29.8,15.2,29.70,North,5,11.0,11.0,54,0.00,,,0.00,Wunderground v.1.15,2013-02-20 21:59:00,
2013-02-20 17:09:00,30.0,15.3,29.70,North,5,8.0,17.0,54,0.00,,,0.00,Wunderground v.1.15,2013-02-20 22:09:00,
2013-02-20 17:19:00,29.8,14.3,29.70,North,5,10.0,11.0,52,0.00,,,0.00,Wunderground v.1.15,2013-02-20 22:19:00,
2013-02-20 17:29:00,29.7,16.7,29.70,North,5,10.0,10.0,58,0.00,,,0.00,Wunderground v.1.15,2013-02-20 22:29:00,
2013-02-20 17:39:00,29.7,15.1,29.71,North,5,11.0,11.0,54,0.00,,,0.00,Wunderground v.1.15,2013-02-20 22:39:00,
2013-02-20 17:49:00,29.5,14.9,29.72,North,5,14.0,14.0,54,0.00,,,0.00,Wunderground v.1.15,2013-02-20 22:49:00,
2013-02-20 17:58:00,29.4,16.4,29.72,North,5,12.0,21.0,58,0.00,,,0.00,Wunderground v.1.15,2013-02-20 22:58:00,
2013-02-20 18:08:00,29.1,16.5,29.74,North,5,12.0,16.0,59,0.00,,,0.00,Wunderground v.1.15,2013-02-20 23:08:00,
2013-02-20 18:18:00,29.1,16.9,29.74,North,5,10.0,21.0,60,0.00,,,0.00,Wunderground v.1.15,2013-02-20 23:18:00,
2013-02-20 18:28:00,29.0,17.6,29.74,North,5,11.0,21.0,62,0.00,,,0.00,Wunderground v.1.15,2013-02-20 23:28:00,
2013-02-20 18:38:00,29.1,17.7,29.74,North,5,11.0,11.0,62,0.00,,,0.00,Wunderground v.1.15,2013-02-20 23:38:00,
2013-02-20 18:48:00,29.2,17.8,29.75,North,5,13.0,13.0,62,0.00,,,0.00,Wunderground v.1.15,2013-02-20 23:48:00,
2013-02-20 18:58:00,29.3,17.9,29.75,North,5,10.0,11.0,62,0.00,,,0.00,Wunderground v.1.15,2013-02-20 23:58:00,
2013-02-20 19:09:00,29.0,17.6,29.75,North,5,14.0,14.0,62,0.00,,,0.00,Wunderground v.1.15,2013-02-21 00:09:00,
2013-02-20 19:19:00,28.9,17.9,29.75,North,5,15.0,15.0,63,0.00,,,0.00,Wunderground v.1.15,2013-02-21 00:19:00,
2013-02-20 19:29:00,28.8,17.4,29.75,North,5,11.0,12.0,62,0.00,,,0.00,Wunderground v.1.15,2013-02-21 00:29:00,
2013-02-20 19:39:00,28.7,18.4,29.75,North,5,9.0,19.0,65,0.00,,,0.00,Wunderground v.1.15,2013-02-21 00:39:00,
2013-02-20 19:49:00,28.4,16.3,29.77,North,5,12.0,12.0,60,0.00,,,0.00,Wunderground v.1.15,2013-02-21 00:49:00,
2013-02-20 19:59:00,28.1,16.0,29.77,North,5,13.0,22.0,60,0.00,,,0.00,Wunderground v.1.15,2013-02-21 00:59:00,
2013-02-20 20:09:00,28.3,17.7,29.75,North,5,15.0,18.0,64,0.00,,,0.00,Wunderground v.1.15,2013-02-21 01:09:00,
2013-02-20 20:19:00,28.1,16.4,29.77,North,5,12.0,12.0,61,0.00,,,0.00,Wunderground v.1.15,2013-02-21 01:19:00,
2013-02-20 20:29:00,27.9,16.6,29.77,North,5,8.0,9.0,62,0.00,,,0.00,Wunderground v.1.15,2013-02-21 01:29:00,
2013-02-20 20:39:00,27.7,14.8,29.78,North,5,13.0,13.0,58,0.00,,,0.00,Wunderground v.1.15,2013-02-21 01:39:00,
2013-02-20 20:49:00,27.6,16.3,29.77,North,5,16.0,16.0,62,0.00,,,0.00,Wunderground v.1.15,2013-02-21 01:49:00,
2013-02-20 20:59:00,27.3,15.6,29.77,North,5,13.0,13.0,61,0.00,,,0.00,Wunderground v.1.15,2013-02-21 01:59:00,
2013-02-20 21:09:00,27.2,15.1,29.77,North,360,14.0,16.0,60,0.00,,,0.00,Wunderground v.1.15,2013-02-21 02:09:00,
2013-02-20 21:19:00,27.0,14.2,29.77,North,5,12.0,12.0,58,0.00,,,0.00,Wunderground v.1.15,2013-02-21 02:19:00,
2013-02-20 21:29:00,26.9,15.6,29.77,North,5,12.0,14.0,62,0.00,,,0.00,Wunderground v.1.15,2013-02-21 02:29:00,
2013-02-20 21:39:00,26.7,15.8,29.78,North,5,10.0,14.0,63,0.00,,,0.00,Wunderground v.1.15,2013-02-21 02:39:00,
2013-02-20 21:49:00,26.7,15.8,29.78,North,5,10.0,13.0,63,0.00,,,0.00,Wunderground v.1.15,2013-02-21 02:49:00,
2013-02-20 21:59:00,26.6,14.9,29.78,North,5,11.0,17.0,61,0.00,,,0.00,Wunderground v.1.15,2013-02-21 02:59:00,
2013-02-20 22:09:00,26.6,15.3,29.79,North,5,10.0,10.0,62,0.00,,,0.00,Wunderground v.1.15,2013-02-21 03:09:00,
2013-02-20 22:18:00,26.3,15.0,29.78,North,5,10.0,12.0,62,0.00,,,0.00,Wunderground v.1.15,2013-02-21 03:18:00,
2013-02-20 22:28:00,26.3,15.8,29.78,North,5,11.0,11.0,64,0.00,,,0.00,Wunderground v.1.15,2013-02-21 03:28:00,
2013-02-20 22:39:00,26.1,15.2,29.79,North,5,10.0,15.0,63,0.00,,,0.00,Wunderground v.1.15,2013-02-21 03:39:00,
2013-02-20 22:49:00,26.1,15.2,29.80,North,5,10.0,10.0,63,0.00,,,0.00,Wunderground v.1.15,2013-02-21 03:49:00,
2013-02-20 22:58:00,26.1,14.8,29.80,North,5,9.0,9.0,62,0.00,,,0.00,Wunderground v.1.15,2013-02-21 03:58:00,
2013-02-20 23:08:00,26.0,14.8,29.80,North,5,10.0,10.0,62,0.00,,,0.00,Wunderground v.1.15,2013-02-21 04:08:00,
2013-02-20 23:18:00,26.0,15.1,29.80,North,5,10.0,10.0,63,0.00,,,0.00,Wunderground v.1.15,2013-02-21 04:18:00,
2013-02-20 23:28:00,26.0,15.1,29.80,North,5,9.0,9.0,63,0.00,,,0.00,Wunderground v.1.15,2013-02-21 04:28:00,
2013-02-20 23:38:00,26.0,15.5,29.81,North,5,10.0,10.0,64,0.00,,,0.00,Wunderground v.1.15,2013-02-21 04:38:00,
2013-02-20 23:48:00,25.8,14.6,29.81,North,5,9.0,15.0,62,0.00,,,0.00,Wunderground v.1.15,2013-02-21 04:48:00,
2013-02-20 23:58:00,25.7,15.2,29.81,North,5,10.0,12.0,64,0.00,,,0.00,Wunderground v.1.15,2013-02-21 04:58:00,